SDM6593 ULLI-UWKD
Flight info
| Callsign | SDM6593 |
|---|---|
| Flight time | N/A |
| Altitude | 35000 |
| Route | SUGIN1D/10L SUGI1B SUGIN T873 VUZPU T490 EZMUB T439 USTOK L94 NAMER L94 UNORO T788 KOROM KORO1T |
| Aircraft | A319/M-SDFGHIRWY/S |
Departure
| Time | N/A |
|---|---|
| Airport | Pulkovo Airport (ULLI) |
Arrival
| Time | 2026-05-07 21:06 |
|---|---|
| Airport | Kazan International Airport (UWKD) |
| Time | Latitude | Longitude | Altitude | Speed | Heading |
|---|---|---|---|---|---|
| 2026-05-07 20:30 | 56.12875 | 43.49908 | 34881 ft | 467 kts | 85° |
| 2026-05-07 20:30 | 56.12839 | 43.55734 | 34880 ft | 466 kts | 86° |
| 2026-05-07 20:31 | 56.12746 | 43.67338 | 34880 ft | 467 kts | 87° |
| 2026-05-07 20:31 | 56.12624 | 43.78957 | 34880 ft | 467 kts | 86° |
| 2026-05-07 20:32 | 56.12486 | 43.90565 | 34880 ft | 467 kts | 87° |
| 2026-05-07 20:32 | 56.12333 | 44.02162 | 34880 ft | 467 kts | 87° |
| 2026-05-07 20:33 | 56.12171 | 44.13797 | 34879 ft | 467 kts | 87° |
| 2026-05-07 20:33 | 56.11997 | 44.25372 | 34880 ft | 467 kts | 87° |
| 2026-05-07 20:34 | 56.11812 | 44.36961 | 34878 ft | 467 kts | 86° |
| 2026-05-07 20:34 | 56.11613 | 44.48615 | 34879 ft | 468 kts | 87° |
| 2026-05-07 20:35 | 56.11403 | 44.60209 | 34880 ft | 467 kts | 86° |
| 2026-05-07 20:35 | 56.11188 | 44.71787 | 34879 ft | 467 kts | 88° |
| 2026-05-07 20:36 | 56.10958 | 44.83440 | 34880 ft | 467 kts | 88° |
| 2026-05-07 20:36 | 56.10713 | 44.95015 | 34879 ft | 467 kts | 88° |
| 2026-05-07 20:37 | 56.10458 | 45.06597 | 34881 ft | 465 kts | 88° |
| 2026-05-07 20:37 | 56.10186 | 45.18115 | 34878 ft | 464 kts | 88° |
| 2026-05-07 20:38 | 56.09921 | 45.29643 | 34881 ft | 463 kts | 88° |
| 2026-05-07 20:38 | 56.09643 | 45.41177 | 34882 ft | 463 kts | 88° |
| 2026-05-07 20:39 | 56.09352 | 45.52626 | 34847 ft | 463 kts | 88° |
| 2026-05-07 20:39 | 56.09201 | 45.58321 | 34587 ft | 451 kts | 88° |
| 2026-05-07 20:39 | 56.09049 | 45.63847 | 34336 ft | 439 kts | 88° |
| 2026-05-07 20:39 | 56.08901 | 45.69235 | 34087 ft | 435 kts | 89° |
| 2026-05-07 20:40 | 56.08753 | 45.74630 | 33838 ft | 434 kts | 89° |
| 2026-05-07 20:40 | 56.08603 | 45.80002 | 33545 ft | 431 kts | 89° |
| 2026-05-07 20:40 | 56.08452 | 45.85297 | 33174 ft | 424 kts | 89° |
| 2026-05-07 20:40 | 56.08301 | 45.90518 | 32644 ft | 421 kts | 89° |
| 2026-05-07 20:41 | 56.08149 | 45.95768 | 32016 ft | 422 kts | 89° |
| 2026-05-07 20:41 | 56.07996 | 46.00987 | 31368 ft | 423 kts | 89° |
| 2026-05-07 20:41 | 56.07839 | 46.06234 | 30699 ft | 425 kts | 89° |
| 2026-05-07 20:41 | 56.07678 | 46.11481 | 30100 ft | 424 kts | 89° |
| 2026-05-07 20:42 | 56.07514 | 46.16707 | 29540 ft | 422 kts | 89° |
| 2026-05-07 20:42 | 56.07347 | 46.22017 | 29207 ft | 428 kts | 89° |
| 2026-05-07 20:42 | 56.07177 | 46.27316 | 28866 ft | 428 kts | 89° |
| 2026-05-07 20:42 | 56.07003 | 46.32600 | 28525 ft | 426 kts | 89° |
| 2026-05-07 20:43 | 56.06828 | 46.37864 | 28187 ft | 423 kts | 89° |
| 2026-05-07 20:43 | 56.06650 | 46.43158 | 27807 ft | 421 kts | 89° |
| 2026-05-07 20:43 | 56.06393 | 46.48318 | 27375 ft | 420 kts | 94° |
| 2026-05-07 20:43 | 56.05840 | 46.53438 | 26913 ft | 419 kts | 100° |
| 2026-05-07 20:44 | 56.04991 | 46.58379 | 26451 ft | 419 kts | 105° |
| 2026-05-07 20:44 | 56.03984 | 46.63223 | 25981 ft | 416 kts | 107° |
| 2026-05-07 20:44 | 56.02937 | 46.68077 | 25509 ft | 412 kts | 108° |
| 2026-05-07 20:44 | 56.01918 | 46.72781 | 25047 ft | 409 kts | 108° |
| 2026-05-07 20:45 | 56.00894 | 46.77516 | 24590 ft | 405 kts | 108° |
| 2026-05-07 20:45 | 55.99883 | 46.82195 | 24137 ft | 402 kts | 108° |
| 2026-05-07 20:45 | 55.98896 | 46.86772 | 23700 ft | 398 kts | 108° |
| 2026-05-07 20:45 | 55.97899 | 46.91386 | 23263 ft | 394 kts | 109° |
| 2026-05-07 20:46 | 55.96926 | 46.95881 | 22835 ft | 391 kts | 109° |
| 2026-05-07 20:46 | 55.95949 | 47.00378 | 22408 ft | 387 kts | 109° |
| 2026-05-07 20:46 | 55.94979 | 47.04832 | 21981 ft | 384 kts | 109° |
| 2026-05-07 20:46 | 55.94015 | 47.09240 | 21539 ft | 381 kts | 109° |
| 2026-05-07 20:47 | 55.93049 | 47.13657 | 21098 ft | 378 kts | 109° |
| 2026-05-07 20:47 | 55.92103 | 47.17976 | 20666 ft | 375 kts | 109° |
| 2026-05-07 20:47 | 55.91147 | 47.22349 | 20218 ft | 372 kts | 109° |
| 2026-05-07 20:47 | 55.90219 | 47.26589 | 19791 ft | 369 kts | 109° |
| 2026-05-07 20:48 | 55.89277 | 47.30854 | 19362 ft | 366 kts | 110° |
| 2026-05-07 20:48 | 55.88342 | 47.35041 | 18938 ft | 363 kts | 110° |
| 2026-05-07 20:48 | 55.87422 | 47.39163 | 18519 ft | 360 kts | 110° |
| 2026-05-07 20:48 | 55.86494 | 47.43326 | 18095 ft | 357 kts | 110° |
| 2026-05-07 20:49 | 55.85586 | 47.47407 | 17677 ft | 355 kts | 110° |
| 2026-05-07 20:49 | 55.84679 | 47.51481 | 17257 ft | 352 kts | 110° |
| 2026-05-07 20:49 | 55.83789 | 47.55474 | 16843 ft | 349 kts | 110° |
| 2026-05-07 20:49 | 55.82901 | 47.59456 | 16430 ft | 347 kts | 110° |
| 2026-05-07 20:50 | 55.82006 | 47.63462 | 16012 ft | 344 kts | 110° |
| 2026-05-07 20:50 | 55.81129 | 47.67380 | 15599 ft | 342 kts | 110° |
| 2026-05-07 20:50 | 55.80254 | 47.71287 | 15187 ft | 339 kts | 111° |
| 2026-05-07 20:50 | 55.79392 | 47.75127 | 14779 ft | 337 kts | 111° |
| 2026-05-07 20:51 | 55.78516 | 47.79016 | 14366 ft | 335 kts | 111° |
| 2026-05-07 20:51 | 55.77660 | 47.82812 | 13954 ft | 333 kts | 111° |
| 2026-05-07 20:51 | 55.76807 | 47.86592 | 13542 ft | 331 kts | 111° |
| 2026-05-07 20:51 | 55.75946 | 47.90396 | 13131 ft | 329 kts | 111° |
| 2026-05-07 20:52 | 55.75098 | 47.94142 | 12723 ft | 327 kts | 111° |
| 2026-05-07 20:52 | 55.74252 | 47.97868 | 12317 ft | 324 kts | 111° |
| 2026-05-07 20:52 | 55.73419 | 48.01527 | 11918 ft | 322 kts | 111° |
| 2026-05-07 20:52 | 55.72572 | 48.05246 | 11513 ft | 320 kts | 111° |
| 2026-05-07 20:53 | 55.71744 | 48.08866 | 11115 ft | 318 kts | 111° |
| 2026-05-07 20:53 | 55.70919 | 48.12476 | 10716 ft | 317 kts | 111° |
| 2026-05-07 20:53 | 55.70091 | 48.16089 | 10318 ft | 315 kts | 111° |
| 2026-05-07 20:53 | 55.69284 | 48.19603 | 10149 ft | 302 kts | 111° |
| 2026-05-07 20:54 | 55.68507 | 48.22982 | 10075 ft | 288 kts | 111° |
| 2026-05-07 20:54 | 55.67761 | 48.26218 | 10000 ft | 278 kts | 111° |
| 2026-05-07 20:54 | 55.67041 | 48.29344 | 9693 ft | 278 kts | 111° |
| 2026-05-07 20:54 | 55.66306 | 48.32524 | 9362 ft | 276 kts | 111° |
| 2026-05-07 20:55 | 55.65579 | 48.35663 | 9045 ft | 275 kts | 111° |
| 2026-05-07 20:55 | 55.64861 | 48.38761 | 8735 ft | 273 kts | 111° |
| 2026-05-07 20:55 | 55.64142 | 48.41856 | 8426 ft | 271 kts | 111° |
| 2026-05-07 20:55 | 55.63425 | 48.44942 | 8117 ft | 269 kts | 111° |
| 2026-05-07 20:56 | 55.62803 | 48.48065 | 7807 ft | 267 kts | 102° |
| 2026-05-07 20:56 | 55.62556 | 48.51297 | 7501 ft | 264 kts | 90° |
| 2026-05-07 20:56 | 55.62571 | 48.54542 | 7213 ft | 262 kts | 87° |
| 2026-05-07 20:56 | 55.62620 | 48.57742 | 6924 ft | 264 kts | 87° |
| 2026-05-07 20:57 | 55.62669 | 48.61078 | 6604 ft | 271 kts | 87° |
| 2026-05-07 20:57 | 55.62712 | 48.64365 | 6308 ft | 269 kts | 87° |
| 2026-05-07 20:57 | 55.62751 | 48.67670 | 5987 ft | 267 kts | 88° |
| 2026-05-07 20:57 | 55.62787 | 48.70954 | 5596 ft | 266 kts | 88° |
| 2026-05-07 20:58 | 55.62821 | 48.74181 | 5185 ft | 261 kts | 88° |
| 2026-05-07 20:58 | 55.62853 | 48.77385 | 4576 ft | 261 kts | 88° |
| 2026-05-07 20:58 | 55.62886 | 48.80596 | 4144 ft | 261 kts | 88° |
| 2026-05-07 20:58 | 55.62916 | 48.83768 | 3976 ft | 251 kts | 88° |
| 2026-05-07 20:59 | 55.62943 | 48.86740 | 3960 ft | 236 kts | 88° |
| 2026-05-07 20:59 | 55.63141 | 48.89528 | 3953 ft | 220 kts | 69° |
| 2026-05-07 20:59 | 55.63946 | 48.91680 | 3956 ft | 210 kts | 43° |
| 2026-05-07 20:59 | 55.65123 | 48.93215 | 3707 ft | 209 kts | 35° |
| 2026-05-07 21:00 | 55.66326 | 48.94633 | 3473 ft | 207 kts | 35° |
| 2026-05-07 21:00 | 55.67501 | 48.96031 | 3301 ft | 202 kts | 35° |
| 2026-05-07 21:00 | 55.68643 | 48.97400 | 3164 ft | 195 kts | 36° |
| 2026-05-07 21:00 | 55.69723 | 48.98790 | 3012 ft | 185 kts | 46° |
| 2026-05-07 21:01 | 55.70320 | 49.00698 | 2818 ft | 175 kts | 78° |
| 2026-05-07 21:01 | 55.70262 | 49.02764 | 2671 ft | 164 kts | 107° |
| 2026-05-07 21:01 | 55.69745 | 49.04426 | 2654 ft | 146 kts | 122° |
| 2026-05-07 21:01 | 55.69179 | 49.05878 | 2670 ft | 143 kts | 122° |
| 2026-05-07 21:02 | 55.68603 | 49.07353 | 2671 ft | 145 kts | 122° |
| 2026-05-07 21:02 | 55.68033 | 49.08813 | 2525 ft | 144 kts | 122° |
| 2026-05-07 21:02 | 55.67485 | 49.10216 | 2312 ft | 132 kts | 122° |
| 2026-05-07 21:02 | 55.66972 | 49.11530 | 2145 ft | 129 kts | 121° |
| 2026-05-07 21:03 | 55.66457 | 49.12861 | 1990 ft | 132 kts | 122° |
| 2026-05-07 21:03 | 55.65935 | 49.14203 | 1816 ft | 132 kts | 122° |
| 2026-05-07 21:03 | 55.65418 | 49.15527 | 1644 ft | 131 kts | 122° |
| 2026-05-07 21:03 | 55.64899 | 49.16859 | 1470 ft | 131 kts | 122° |
| 2026-05-07 21:04 | 55.64382 | 49.18190 | 1296 ft | 130 kts | 122° |
| 2026-05-07 21:04 | 55.63870 | 49.19508 | 1123 ft | 130 kts | 122° |
| 2026-05-07 21:04 | 55.63367 | 49.20807 | 953 ft | 129 kts | 122° |
| 2026-05-07 21:04 | 55.62861 | 49.22114 | 781 ft | 129 kts | 122° |
| 2026-05-07 21:05 | 55.62352 | 49.23421 | 611 ft | 128 kts | 122° |
| 2026-05-07 21:05 | 55.61847 | 49.24719 | 435 ft | 127 kts | 122° |
| 2026-05-07 21:05 | 55.61360 | 49.25976 | 353 ft | 113 kts | 123° |
| 2026-05-07 21:05 | 55.60978 | 49.26969 | 369 ft | 76 kts | 124° |
| 2026-05-07 21:06 | 55.60746 | 49.27565 | 381 ft | 51 kts | 123° |
| 2026-05-07 21:06 | 55.60563 | 49.28043 | 389 ft | 42 kts | 129° |
| 2026-05-07 21:06 | 55.60413 | 49.28426 | 394 ft | 22 kts | 123° |
| 2026-05-07 21:06 | 55.60414 | 49.28598 | 396 ft | 11 kts | 38° |
| 2026-05-07 21:07 | 55.60424 | 49.28611 | 396 ft | 0 kts | 38° |
| 2026-05-07 21:07 | 55.60433 | 49.28624 | 396 ft | 3 kts | 38° |
| 2026-05-07 21:07 | 55.60457 | 49.28658 | 396 ft | 5 kts | 39° |
| 2026-05-07 21:07 | 55.60489 | 49.28705 | 397 ft | 5 kts | 39° |
| 2026-05-07 21:08 | 55.60508 | 49.28738 | 399 ft | 1 kts | 56° |
| 2026-05-07 21:08 | 55.60509 | 49.28741 | 399 ft | 0 kts | 59° |
| 2026-05-07 21:08 | 55.60529 | 49.28762 | 401 ft | 6 kts | 25° |
| 2026-05-07 21:08 | 55.60571 | 49.28800 | 403 ft | 7 kts | 39° |
| 2026-05-07 21:09 | 55.60582 | 49.28916 | 400 ft | 12 kts | 95° |
| 2026-05-07 21:09 | 55.60577 | 49.29074 | 400 ft | 12 kts | 79° |
| 2026-05-07 21:09 | 55.60627 | 49.29201 | 401 ft | 13 kts | 35° |
| 2026-05-07 21:09 | 55.60696 | 49.29285 | 405 ft | 10 kts | 34° |
| 2026-05-07 21:10 | 55.60737 | 49.29333 | 410 ft | 2 kts | 33° |
| 2026-05-07 21:10 | 55.60738 | 49.29333 | 410 ft | 1 kts | 33° |
| 2026-05-07 21:10 | 55.60732 | 49.29327 | 409 ft | 0 kts | 33° |
| 2026-05-07 21:10 | 55.60737 | 49.29334 | 410 ft | 0 kts | 46° |
| 2026-05-07 21:11 | 55.60738 | 49.29337 | 410 ft | 0 kts | 68° |
| 2026-05-07 21:11 | 55.60736 | 49.29376 | 414 ft | 7 kts | 105° |
| 2026-05-07 21:11 | 55.60679 | 49.29542 | 423 ft | 4 kts | 95° |
| 2026-05-07 21:12 | 55.60692 | 49.29577 | 423 ft | 3 kts | 36° |
| 2026-05-07 21:12 | 55.60696 | 49.29582 | 422 ft | 0 kts | 36° |